.
WxDataArchive / Data Records for 2012-09-04
2012-09-03 September 2012 2012-09-05

Data Records for Tuesday, 04 September 2012

Time	Temp	Chill	HIndex	Humid	Dewpt	 Wind 	HiWind	WindDir	Rain 	Barom 
-----	----	-----	------	-----	-----	------	------	-------	-----	----- 
00:00	72.8	72.8	72.8	92	70.3	0	0	---	0.00	29.879 
00:05	72.8	72.8	72.8	92	70.3	0	0	---	0.00	29.879 
00:10	72.7	72.7	72.7	92	70.2	0	0	---	0.00	29.879 
00:15	72.5	72.5	72.5	92	70.0	0	0	---	0.00	29.877 
00:20	72.5	72.5	72.5	92	70.0	0	0	---	0.00	29.877 
00:25	72.3	72.3	72.3	92	69.8	0	0	---	0.00	29.877 
00:30	72.3	72.3	72.3	92	69.8	0	0	---	0.00	29.877 
00:35	72.1	72.1	72.1	92	69.6	0	0	---	0.00	29.877 
00:40	72.0	72.0	72.0	92	69.5	0	0	---	0.00	29.877 
00:45	72.0	72.0	72.0	92	69.5	0	0	---	0.00	29.873 
00:50	71.8	71.8	71.8	92	69.3	0	0	---	0.00	29.873 
00:55	71.8	71.8	71.8	93	69.7	0	0	---	0.00	29.873 
01:00	71.6	71.6	71.6	93	69.5	0	0	---	0.00	29.865 
01:05	71.6	71.6	71.6	93	69.5	0	0	---	0.00	29.865 
01:10	71.8	71.8	71.8	93	69.7	0	0	---	0.00	29.865 
01:15	71.6	71.6	71.6	93	69.5	0	0	---	0.00	29.864 
01:20	71.6	71.6	71.6	93	69.5	0	0	---	0.00	29.864 
01:25	71.5	71.5	71.5	93	69.4	0	0	---	0.00	29.864 
01:30	71.3	71.3	71.3	93	69.2	0	0	---	0.00	29.860 
01:35	71.1	71.1	71.1	93	69.0	0	0	---	0.00	29.860 
01:40	71.1	71.1	71.1	93	69.0	0	0	---	0.00	29.860 
01:45	71.1	71.1	71.1	94	69.3	0	0	---	0.00	29.861 
01:50	71.1	71.1	71.1	94	69.3	0	0	---	0.00	29.861 
01:55	71.1	71.1	71.1	94	69.3	0	0	---	0.00	29.861 
02:00	70.9	70.9	70.9	94	69.1	0	0	---	0.00	29.850 
02:05	70.8	70.8	70.8	94	69.0	0	0	---	0.00	29.850 
02:10	70.8	70.8	70.8	94	69.0	0	0	---	0.00	29.850 
02:15	70.6	70.6	70.6	94	68.8	0	0	---	0.00	29.846 
02:20	70.6	70.6	70.6	94	68.8	0	0	---	0.00	29.846 
02:25	70.6	70.6	70.6	94	68.8	0	0	---	0.00	29.846 
02:30	70.4	70.4	70.4	94	68.6	0	0	---	0.00	29.849 
02:35	70.4	70.4	70.4	94	68.6	0	0	---	0.00	29.849 
02:40	70.4	70.4	70.4	94	68.6	0	0	---	0.00	29.849 
02:45	70.3	70.3	70.3	94	68.5	0	0	---	0.00	29.847 
02:50	70.3	70.3	70.3	94	68.5	0	0	---	0.00	29.847 
02:55	70.1	70.1	70.1	94	68.3	0	0	---	0.00	29.847 
03:00	69.9	69.9	69.9	94	68.1	0	0	---	0.00	29.844 
03:05	69.9	69.9	69.9	94	68.1	0	0	---	0.00	29.844 
03:10	69.9	69.9	69.9	95	68.4	0	0	---	0.00	29.844 
03:15	70.1	70.1	70.1	95	68.6	0	0	---	0.00	29.837 
03:20	70.1	70.1	70.1	95	68.6	0	0	---	0.00	29.837 
03:25	70.1	70.1	70.1	95	68.6	0	0	---	0.00	29.837 
03:30	70.1	70.1	70.1	95	68.6	0	0	---	0.00	29.832 
03:35	69.9	69.9	69.9	95	68.4	0	0	---	0.00	29.832 
03:40	69.9	69.9	69.9	95	68.4	0	0	---	0.00	29.832 
03:45	69.9	69.9	69.9	95	68.4	0	0	---	0.00	29.836 
03:50	69.8	69.8	69.8	95	68.3	0	0	---	0.00	29.836 
03:55	69.8	69.8	69.8	95	68.3	0	0	---	0.00	29.836 
04:00	69.9	69.9	69.9	95	68.4	0	0	---	0.00	29.839 
04:05	69.8	69.8	69.8	95	68.3	0	0	---	0.00	29.839 
04:10	69.6	69.6	69.6	95	68.1	0	0	---	0.00	29.839 
04:15	69.6	69.6	69.6	95	68.1	0	0	---	0.00	29.842 
04:20	69.4	69.4	69.4	95	67.9	0	0	---	0.00	29.842 
04:25	69.4	69.4	69.4	95	67.9	0	0	---	0.00	29.842 
04:30	69.3	69.3	69.3	95	67.8	0	0	---	0.00	29.841 
04:35	69.3	69.3	69.3	95	67.8	0	0	---	0.00	29.841 
04:40	69.3	69.3	69.3	95	67.8	0	0	---	0.00	29.841 
04:45	69.1	69.1	69.1	95	67.6	0	0	---	0.00	29.843 
04:50	69.1	69.1	69.1	95	67.6	0	0	---	0.00	29.843 
04:55	68.9	68.9	68.9	95	67.4	0	0	---	0.00	29.843 
05:00	68.9	68.9	68.9	95	67.4	0	0	---	0.00	29.844 
05:05	68.8	68.8	68.8	95	67.3	0	0	---	0.00	29.844 
05:10	68.8	68.8	68.8	95	67.3	0	0	---	0.00	29.844 
05:15	68.8	68.8	68.8	95	67.3	0	0	---	0.00	29.848 
05:20	68.8	68.8	68.8	95	67.3	0	0	---	0.00	29.848 
05:25	68.8	68.8	68.8	95	67.3	0	0	---	0.00	29.848 
05:30	68.8	68.8	68.8	95	67.3	0	0	---	0.00	29.850 
05:35	68.6	68.6	68.6	95	67.1	0	0	---	0.00	29.850 
05:40	68.6	68.6	68.6	95	67.1	0	0	---	0.00	29.850 
05:45	68.4	68.4	68.4	95	66.9	0	0	---	0.00	29.848 
05:50	68.4	68.4	68.4	96	67.2	0	0	---	0.00	29.848 
05:55	68.4	68.4	68.4	95	66.9	0	0	---	0.00	29.848 
06:00	68.3	68.3	68.3	95	66.8	0	0	---	0.00	29.847 
06:05	68.3	68.3	68.3	96	67.1	0	0	---	0.00	29.847 
06:10	68.3	68.3	68.3	96	67.1	0	0	---	0.00	29.847 
06:15	68.4	68.4	68.4	96	67.2	0	0	---	0.00	29.855 
06:20	68.4	68.4	68.4	96	67.2	0	0	---	0.00	29.855 
06:25	68.6	68.6	68.6	96	67.4	0	0	---	0.00	29.855 
06:30	68.8	68.8	68.8	96	67.6	0	0	---	0.00	29.853 
06:35	68.9	68.9	68.9	96	67.7	0	0	---	0.00	29.853 
06:40	69.1	69.1	69.1	96	67.9	0	0	---	0.00	29.853 
06:45	69.3	69.3	69.3	96	68.1	0	0	---	0.00	29.854 
06:50	69.3	69.3	69.3	96	68.1	0	0	---	0.00	29.854 
06:55	69.4	69.4	69.4	96	68.2	0	0	---	0.00	29.854 
07:00	69.3	69.3	69.3	96	68.1	0	0	---	0.00	29.854 
07:05	69.4	69.4	69.4	96	68.2	0	0	---	0.00	29.854 
07:10	69.3	69.3	69.3	96	68.1	0	0	---	0.00	29.854 
07:15	69.3	69.3	69.3	96	68.1	0	0	---	0.00	29.853 
07:20	69.1	69.1	69.1	96	67.9	0	0	---	0.00	29.853 
07:25	69.1	69.1	69.1	96	67.9	0	0	---	0.00	29.853 
07:30	69.1	69.1	69.1	96	67.9	0	0	---	0.00	29.865 
07:35	68.9	68.9	68.9	96	67.7	0	0	---	0.00	29.865 
07:40	69.1	69.1	69.1	96	67.9	0	0	---	0.00	29.865 
07:45	69.1	69.1	69.1	96	67.9	0	0	---	0.00	29.868 
07:50	69.3	69.3	69.3	96	68.1	0	0	---	0.00	29.868 
07:55	69.3	69.3	69.3	96	68.1	0	0	---	0.00	29.868 
08:00	69.4	69.4	69.4	96	68.2	0	0	---	0.00	29.861 
08:05	69.6	69.6	69.6	96	68.4	0	0	---	0.00	29.861 
08:10	69.8	69.8	69.8	96	68.6	0	0	---	0.00	29.861 
08:15	69.9	69.9	69.9	96	68.7	0	0	---	0.00	29.865 
08:20	70.1	70.1	70.1	96	68.9	0	0	---	0.00	29.865 
08:25	70.3	70.3	70.3	96	69.1	0	0	---	0.00	29.865 
08:30	70.4	70.4	70.4	96	69.2	0	0	---	0.00	29.869 
08:35	70.4	70.4	70.4	96	69.2	0	0	---	0.00	29.869 
08:40	70.8	70.8	70.8	96	69.6	0	0	---	0.00	29.869 
08:45	70.8	70.8	70.8	96	69.6	0	0	---	0.00	29.871 
08:50	70.9	70.9	70.9	96	69.7	0	0	---	0.00	29.871 
08:55	71.1	71.1	71.1	96	69.9	0	0	---	0.00	29.871 
09:00	71.5	71.5	71.5	96	70.3	0	1	90	0.00	29.873 
09:05	71.5	71.5	71.5	96	70.3	0	1	90	0.00	29.873 
09:10	71.5	71.5	71.5	96	70.3	0	1	90	0.00	29.873 
09:15	71.6	71.6	71.6	96	70.4	0	2	90	0.00	29.874 
09:20	71.6	71.6	71.6	96	70.4	0	1	90	0.00	29.874 
09:25	71.8	71.8	71.8	96	70.6	0	1	90	0.00	29.874 
09:30	72.0	72.0	72.0	96	70.8	0	1	90	0.00	29.868 
09:35	72.1	72.1	72.1	96	70.9	0	0	---	0.00	29.868 
09:40	72.3	72.3	72.3	96	71.1	0	1	90	0.00	29.868 
09:45	72.5	72.5	72.5	96	71.3	0	0	---	0.00	29.866 
09:50	72.7	72.7	72.7	96	71.5	0	0	---	0.00	29.866 
09:55	73.2	73.2	73.2	96	72.0	0	1	90	0.00	29.866 
10:00	73.2	73.2	73.2	96	72.0	1	3	90	0.00	29.867 
10:05	73.5	73.5	73.5	95	72.0	1	3	90	0.00	29.867 
10:10	74.0	74.0	74.0	95	72.5	0	1	90	0.00	29.867 
10:15	74.9	74.9	74.9	95	73.4	0	2	90	0.00	29.864 
10:20	74.9	74.9	74.9	94	73.0	0	1	90	0.00	29.864 
10:25	74.9	74.9	74.9	93	72.7	0	3	90	0.00	29.864 
10:30	75.1	75.1	73.9	92	72.6	0	1	90	0.00	29.859 
10:35	75.1	75.1	74.1	91	72.3	0	1	90	0.00	29.859 
10:40	75.3	75.3	74.7	90	72.2	0	1	90	0.00	29.859 
10:45	75.4	75.4	75.1	88	71.6	0	2	90	0.00	29.850 
10:50	76.0	76.0	76.4	87	71.8	0	1	90	0.00	29.850 
10:55	76.7	76.7	77.8	86	72.2	0	2	90	0.00	29.850 
11:00	77.0	77.0	78.4	84	71.8	0	2	90	0.00	29.851 
11:05	77.2	77.2	78.8	83	71.6	0	0	---	0.00	29.851 
11:10	77.4	77.4	79.2	83	71.8	0	0	---	0.00	29.851 
11:15	77.4	77.4	79.2	81	71.1	0	1	90	0.00	29.850 
11:20	77.7	77.7	79.8	82	71.8	0	0	---	0.00	29.850 
11:25	78.1	78.1	80.5	82	72.1	0	1	90	0.00	29.850 
11:30	78.8	78.8	81.9	81	72.5	0	1	90	0.00	29.847 
11:35	79.2	79.2	82.3	77	71.3	0	3	90	0.00	29.847 
11:40	80.1	80.1	83.9	76	71.8	0	0	---	0.00	29.847 
11:45	81.1	81.1	85.3	73	71.6	0	1	90	0.00	29.838 
11:50	82.0	82.0	86.9	72	72.1	0	2	90	0.00	29.838 
11:55	82.8	82.8	88.0	70	72.0	0	1	90	0.00	29.838 
12:00	83.2	83.2	88.5	69	71.9	0	1	90	0.00	29.843 
12:05	83.2	83.2	88.2	68	71.5	0	1	90	0.00	29.843 
12:10	83.6	83.6	89.3	69	72.3	0	1	90	0.00	29.843 
12:15	83.0	83.0	87.6	67	70.9	1	3	292	0.00	29.845 
12:20	82.4	82.4	87.0	69	71.2	1	4	292	0.00	29.845 
12:25	82.6	82.6	88.4	73	73.0	0	3	292	0.00	29.845 
12:30	82.6	82.6	87.6	70	71.8	0	1	270	0.00	29.836 
12:35	82.6	82.6	87.3	69	71.4	1	3	292	0.00	29.836 
12:40	82.8	82.8	87.5	68	71.1	1	3	292	0.00	29.836 
12:45	83.0	83.0	87.3	66	70.4	1	3	292	0.00	29.836 
12:50	83.2	83.2	87.7	66	70.6	1	3	292	0.00	29.836 
12:55	83.2	83.2	87.7	66	70.6	1	3	292	0.00	29.836 
13:00	83.4	83.4	88.4	67	71.3	0	2	292	0.00	29.842 
13:05	83.6	83.6	88.5	66	71.0	0	2	292	0.00	29.842 
13:10	83.4	83.4	88.6	68	71.7	0	3	292	0.00	29.842 
13:15	83.4	83.4	88.1	66	70.8	0	2	292	0.00	29.841 
13:20	83.6	83.6	88.2	65	70.6	1	3	292	0.00	29.841 
13:25	84.0	84.0	88.9	65	70.9	1	3	292	0.00	29.841 
13:30	84.3	84.3	88.9	63	70.3	1	3	292	0.00	29.834 
13:35	84.9	84.9	90.0	63	70.9	1	3	292	0.00	29.834 
13:40	85.1	85.1	90.1	62	70.6	2	4	292	0.00	29.834 
13:45	85.1	85.1	90.1	62	70.6	1	3	292	0.00	29.829 
13:50	84.9	84.9	89.7	62	70.4	1	4	292	0.00	29.829 
13:55	84.9	84.9	89.4	61	69.9	2	4	315	0.00	29.829 
14:00	84.5	84.5	89.0	62	70.0	1	3	315	0.00	29.827 
14:05	84.5	84.5	89.6	64	71.0	1	3	315	0.00	29.827 
14:10	84.5	84.5	88.7	61	69.5	1	4	292	0.00	29.827 
14:15	84.9	84.9	90.0	63	70.9	0	3	292	0.00	29.828 
14:20	85.1	85.1	89.8	61	70.1	1	4	292	0.00	29.828 
14:25	85.7	85.7	90.5	60	70.2	1	3	292	0.00	29.828 
14:30	85.3	85.3	89.8	60	69.8	1	4	292	0.00	29.823 
14:35	84.9	84.9	89.1	60	69.4	1	4	292	0.00	29.823 
14:40	85.3	85.3	89.8	60	69.8	1	4	270	0.00	29.823 
14:45	85.3	85.3	89.2	58	68.8	1	4	270	0.00	29.819 
14:50	84.9	84.9	88.5	58	68.4	0	2	270	0.00	29.819 
14:55	84.7	84.7	89.0	61	69.7	0	2	270	0.00	29.819 
15:00	85.5	85.5	89.5	58	69.0	1	3	270	0.00	29.816 
15:05	85.9	85.9	89.6	56	68.3	0	3	0	0.00	29.816 
15:10	85.3	85.3	88.0	54	66.7	1	2	0	0.00	29.816 
15:15	85.1	85.1	88.2	56	67.6	1	3	315	0.00	29.813 
15:20	85.3	85.3	88.0	54	66.7	1	4	315	0.00	29.813 
15:25	85.3	85.3	88.0	54	66.7	1	3	270	0.00	29.813 
15:30	85.5	85.5	88.3	54	66.9	1	5	270	0.00	29.813 
15:35	85.5	85.5	88.0	53	66.4	1	3	292	0.00	29.813 
15:40	85.5	85.5	88.3	54	66.9	1	5	292	0.00	29.813 
15:45	85.7	85.7	88.3	53	66.6	2	4	315	0.00	29.811 
15:50	85.7	85.7	88.3	53	66.6	1	3	270	0.00	29.811 
15:55	85.1	85.1	87.7	54	66.6	1	2	270	0.00	29.811 
16:00	84.7	84.7	87.3	55	66.7	1	4	270	0.00	29.804 
16:05	84.7	84.7	87.6	56	67.2	1	4	292	0.00	29.804 
16:10	84.7	84.7	87.6	56	67.2	1	4	292	0.00	29.804 
16:15	84.5	84.5	87.5	57	67.6	1	4	292	0.00	29.802 
16:20	84.1	84.1	86.9	57	67.2	1	3	315	0.00	29.802 
16:25	84.0	84.0	87.0	58	67.6	1	3	270	0.00	29.802 
16:30	84.0	84.0	87.0	58	67.6	1	4	270	0.00	29.804 
16:35	83.6	83.6	86.4	58	67.2	1	4	292	0.00	29.804 
16:40	83.4	83.4	86.1	58	67.0	1	3	292	0.00	29.804 
16:45	83.2	83.2	86.2	60	67.8	0	2	292	0.00	29.809 
16:50	83.2	83.2	86.2	60	67.8	0	2	292	0.00	29.809 
16:55	83.0	83.0	85.7	59	67.2	1	3	292	0.00	29.809 
17:00	83.0	83.0	85.9	60	67.7	0	3	315	0.00	29.813 
17:05	83.0	83.0	85.9	60	67.7	1	3	315	0.00	29.813 
17:10	82.6	82.6	85.3	60	67.3	0	3	315	0.00	29.813 
17:15	82.4	82.4	85.2	61	67.6	0	1	315	0.00	29.818 
17:20	82.8	82.8	85.6	60	67.5	0	2	315	0.00	29.818 
17:25	83.2	83.2	86.2	60	67.8	1	4	270	0.00	29.818 
17:30	83.6	83.6	86.9	60	68.2	1	4	270	0.00	29.815 
17:35	83.8	83.8	86.7	58	67.4	1	4	270	0.00	29.815 
17:40	83.8	83.8	86.9	59	67.9	0	3	292	0.00	29.815 
17:45	83.8	83.8	86.7	58	67.4	0	1	292	0.00	29.817 
17:50	83.6	83.6	86.4	58	67.2	0	2	292	0.00	29.817 
17:55	83.2	83.2	85.8	58	66.9	0	2	292	0.00	29.817 
18:00	83.2	83.2	86.0	59	67.4	0	2	292	0.00	29.822 
18:05	83.2	83.2	86.0	59	67.4	0	1	292	0.00	29.822 
18:10	83.4	83.4	86.3	59	67.5	0	1	292	0.00	29.822 
18:15	83.4	83.4	86.3	59	67.5	0	1	292	0.00	29.826 
18:20	83.4	83.4	86.3	59	67.5	0	3	292	0.00	29.826 
18:25	83.4	83.4	86.1	58	67.0	0	1	292	0.00	29.826 
18:30	83.2	83.2	85.8	58	66.9	0	2	315	0.00	29.826 
18:35	83.0	83.0	85.7	59	67.2	0	1	315	0.00	29.826 
18:40	82.8	82.8	85.4	59	67.0	0	1	315	0.00	29.826 
18:45	82.6	82.6	85.1	59	66.8	0	1	315	0.00	29.830 
18:50	82.4	82.4	85.0	60	67.1	0	0	---	0.00	29.830 
18:55	82.4	82.4	85.0	60	67.1	0	2	315	0.00	29.830 
19:00	82.2	82.2	85.1	62	67.9	0	0	---	0.00	29.827 
19:05	81.8	81.8	84.3	61	67.0	0	0	---	0.00	29.827 
19:10	81.6	81.6	84.2	62	67.3	0	0	---	0.00	29.827 
19:15	81.2	81.2	83.6	62	66.9	0	1	315	0.00	29.826 
19:20	81.1	81.1	83.6	63	67.3	0	0	---	0.00	29.826 
19:25	80.9	80.9	83.5	64	67.6	0	0	---	0.00	29.826 
19:30	80.9	80.9	83.4	63	67.1	0	0	---	0.00	29.826 
19:35	80.7	80.7	83.2	64	67.4	0	0	---	0.00	29.826 
19:40	80.5	80.5	82.9	64	67.2	0	0	---	0.00	29.826 
19:45	80.3	80.3	82.7	64	67.0	0	0	---	0.00	29.821 
19:50	80.1	80.1	82.4	64	66.8	0	0	---	0.00	29.821 
19:55	79.9	79.9	82.1	64	66.6	0	0	---	0.00	29.821 
20:00	79.8	79.8	82.1	65	67.0	0	0	---	0.00	29.823 
20:05	79.6	79.6	81.8	65	66.8	0	0	---	0.00	29.823 
20:10	79.2	79.2	81.4	66	66.8	0	0	---	0.00	29.823 
20:15	79.0	79.0	81.2	67	67.1	0	0	---	0.00	29.824 
20:20	78.6	78.6	80.7	68	67.1	0	0	---	0.00	29.824 
20:25	78.3	78.3	80.4	69	67.3	0	0	---	0.00	29.824 
20:30	77.9	77.9	79.9	69	66.9	0	0	---	0.00	29.823 
20:35	77.7	77.7	79.6	70	67.1	0	0	---	0.00	29.823 
20:40	77.4	77.4	79.3	71	67.2	0	0	---	0.00	29.823 
20:45	77.0	77.0	78.7	72	67.3	0	0	---	0.00	29.827 
20:50	76.8	76.8	78.5	73	67.5	0	0	---	0.00	29.827 
20:55	76.5	76.5	78.1	73	67.2	0	0	---	0.00	29.827 
21:00	76.1	76.1	77.5	74	67.2	0	0	---	0.00	29.833 
21:05	76.0	76.0	77.4	75	67.5	0	0	---	0.00	29.833 
21:10	75.6	75.6	76.8	76	67.5	0	0	---	0.00	29.833 
21:15	75.3	75.3	76.3	77	67.6	0	0	---	0.00	29.836 
21:20	75.1	75.1	76.1	77	67.4	0	0	---	0.00	29.836 
21:25	74.7	74.7	74.7	78	67.4	0	0	---	0.00	29.836 
21:30	74.6	74.6	74.6	79	67.6	0	0	---	0.00	29.834 
21:35	74.2	74.2	74.2	80	67.6	0	0	---	0.00	29.834 
21:40	74.0	74.0	74.0	81	67.8	0	0	---	0.00	29.834 
21:45	73.9	73.9	73.9	81	67.7	0	0	---	0.00	29.838 
21:50	73.7	73.7	73.7	82	67.9	0	0	---	0.00	29.838 
21:55	73.5	73.5	73.5	83	68.0	0	0	---	0.00	29.838 
22:00	73.3	73.3	73.3	83	67.8	0	0	---	0.00	29.840 
22:05	73.2	73.2	73.2	84	68.1	0	0	---	0.00	29.840 
22:10	73.0	73.0	73.0	84	67.9	0	0	---	0.00	29.840 
22:15	72.8	72.8	72.8	85	68.0	0	0	---	0.00	29.841 
22:20	72.7	72.7	72.7	85	67.9	0	0	---	0.00	29.841 
22:25	72.5	72.5	72.5	86	68.1	0	0	---	0.00	29.841 
22:30	72.3	72.3	72.3	86	67.9	0	0	---	0.00	29.842 
22:35	72.1	72.1	72.1	86	67.7	0	0	---	0.00	29.842 
22:40	72.0	72.0	72.0	87	67.9	0	0	---	0.00	29.842 
22:45	71.8	71.8	71.8	87	67.7	0	0	---	0.00	29.843 
22:50	71.8	71.8	71.8	87	67.7	0	0	---	0.00	29.843 
22:55	71.6	71.6	71.6	87	67.5	0	0	---	0.00	29.843 
23:00	71.5	71.5	71.5	88	67.7	0	0	---	0.00	29.841 
23:05	71.3	71.3	71.3	88	67.6	0	0	---	0.00	29.841 
23:10	71.1	71.1	71.1	88	67.4	0	0	---	0.00	29.841 
23:15	71.1	71.1	71.1	89	67.7	0	0	---	0.00	29.839 
23:20	70.8	70.8	70.8	88	67.1	0	0	---	0.00	29.839 
23:25	70.6	70.6	70.6	88	66.9	0	0	---	0.00	29.839 
23:30	70.4	70.4	70.4	88	66.7	0	0	---	0.00	29.845 
23:35	70.3	70.3	70.3	88	66.6	0	0	---	0.00	29.845 
23:40	70.3	70.3	70.3	89	66.9	0	0	---	0.00	29.845 
23:45	70.3	70.3	70.3	89	66.9	0	0	---	0.00	29.847 
23:50	70.1	70.1	70.1	89	66.7	0	0	---	0.00	29.847 
23:55	69.9	69.9	69.9	89	66.5	0	0	---	0.00	29.847 

CoCoRaHS
IN-AL-39
A2 Web Hosting
Creative Commons License
GoDaddy
search engine by freefind advanced

loaded 2018-11-15 03:45:02 • last modified 2010-11-18 10:43:29
Privacy PolicyDisclaimer
• wx.awcolley.com is powered by PmWiki v.2002016 •
• all content (unless otherwise noted) © 2018 A W Colley